Terminal Aerodrome Forecast
Issued by NWS Sioux Falls, SD

Home | Current Version | Previous Version | Text Only | Print | Product List | Glossary Off
Versions: 1 2 3 4 5 6 7 8 9 10 11 12 13 14 15 16 17 18 19 20 21 22 23 24 25 26 27 28 29 30 31 32

000
FTUS43 KFSD 092300
TAFSUX
TAF
KSUX 092320Z 1000/1024 20006KT P6SM SCT060
     FM100100 14004KT P6SM SCT100
     FM100800 15006KT P6SM BKN080
     FM101600 16015G23KT P6SM SCT080=

USA.gov is the U.S. government's official web portal to all federal, state and local government web resources and services.